x

Montauk Point -23 Nm Ssw Of Montauk Point, Ny (44017) Wave Buoy

12:50am - Mon 16th Jul 2018 All times are EDT. -4 hours from GMT.

  • Sig Wave height 2.6ft
  • Swell Direction
  • Peak Period 7s
  • Average Period 5s
  • Wind
    11mph, 11mph gusts
  • Sea Temp 71°f
  • 空気 Temp 72°f
  • Sea Pressure 1015.7mb
  • Montauk Point -23 Nm Ssw Of Montauk Point, Ny
  • Montauk Point -23 Nm Ssw Of Montauk Point, Ny

More Historic Weather Station data

Upgrade to MSW Pro to gain access to the past 30 days of data for over 8000 Wavebouys and Weather Stations around the globe.

Join

Comparision Forecast

View Surf forecast
   
Mon 07/16 12:50am 2.5ft 7s 5s 11 11 mph 1015.7mb 71f 72f
Sun 07/15 11:50pm 3ft 7s 5s 11 13 mph 1015.6mb 71f 72f
10:50pm 2.5ft 5s 5s 11 13 mph 1015.5mb 71f 73f
9:50pm 3ft 5s 5s 11 13 mph 1015.3mb 71f 73f
8:50pm 3ft 5s 4s 11 13 mph 1014.9mb 71f 72f
7:50pm 3.5ft 4s 4s 16 18 mph 1014.6mb 71f 73f
5:50pm 3ft 6s 5s 11 13 mph 1014.4mb 71f 72f
4:50pm 3ft 5s 5s 11 13 mph 1014.7mb 71f 72f
3:50pm 3ft 5s 5s 13 18 mph 1014.7mb 71f 72f
2:50pm 3ft 6s 4s 16 18 mph 1015.2mb 71f 72f
12:50pm 3.5ft 6s 5s 13 16 mph 1015.8mb 71f 72f
11:50am 3ft 6s 4s 13 16 mph 1016mb 71f 72f
10:50am 3.5ft 6s 5s 13 18 mph 1015.9mb 71f 72f
8:50am 3.5ft 6s 5s 16 18 mph 1015.7mb 71f 71f
7:50am 3.5ft 6s 5s 13 18 mph 1016.1mb 71f 72f
6:50am 3.5ft 6s 5s 9 11 mph 1016.5mb 71f 72f
4:50am 3.5ft 5s 5s 9 11 mph 1015.9mb 71f 72f
3:50am 3.5ft 5s 5s 7 9 mph 1015.2mb 71f 73f
2:50am 3.5ft 5s 5s 13 18 mph 1016.5mb 71f 73f
1:50am 3.5ft 11s 5s 13 16 mph 1016.7mb 71f 73f
12:50am 3.5ft 9s 5s 11 11 mph 1017.1mb 71f 73f
Sat 07/14 11:50pm 3.5ft 10s 5s 9 11 mph 1017.1mb 71f 73f
10:50pm 3.5ft 9s 5s 11 13 mph 1017.4mb 71f 73f
8:50pm 3ft 11s 5s 11 13 mph 1017.4mb 72f 73f
7:50pm 2.5ft 11s 5s 11 13 mph 1017.6mb 72f 72f
6:50pm 2.5ft 7s 5s 13 13 mph 1018.1mb 72f 72f
5:50pm 2.5ft 11s 5s 11 13 mph 1018.6mb 72f 72f
4:50pm 2.5ft 8s 5s 11 13 mph 1019.2mb 72f 72f
3:50pm 2.5ft 11s 4s 11 13 mph 1019.7mb 72f 72f
2:50pm 2.5ft 8s 5s 13 16 mph 1020mb 71f 71f
1:50pm 2.5ft 8s 5s 11 13 mph 1020.4mb 71f 71f
12:50pm 3ft 12s 5s 11 13 mph 1020.6mb 71f 71f
11:50am 2.5ft 8s 5s 9 11 mph 1021.2mb 71f 71f
10:50am 2.5ft 7s 6s 11 13 mph 1021mb 71f 71f
8:50am 3ft 8s 6s 9 11 mph 1021.6mb 71f 70f
7:50am 2.5ft 8s 6s 7 9 mph 1021.6mb 70f 71f
5:50am 2.5ft 8s 6s 7 7 mph 1021.9mb 70f 70f
4:50am 2.5ft 8s 6s 4 7 mph 1022.3mb 70f 70f
3:50am 2.5ft 8s 5s 7 7 mph 1022.4mb 71f 70f
2:50am 2.5ft 8s 5s 7 9 mph 1022.7mb 71f 70f
1:50am 2.5ft 8s 5s 9 11 mph 1022.8mb 71f 71f
12:50am 2.5ft 8s 6s 11 11 mph 1022.8mb 71f 71f
Fri 07/13 11:50pm 2.5ft 8s 5s 11 13 mph 1022.9mb 71f 71f
10:50pm 2.5ft 8s 6s 11 13 mph 1023.2mb 71f 71f
9:50pm 2.5ft 8s 6s 11 13 mph 1023.4mb 71f 71f
8:50pm 2.5ft 8s 6s 11 13 mph 1022.9mb 71f 71f
7:50pm 2.5ft 8s 5s 11 11 mph 1022.9mb 71f 71f
6:50pm 2.5ft 9s 5s 13 16 mph 1023mb 72f 71f
5:50pm 2.5ft 8s 6s 11 13 mph 1023.3mb 72f 71f
3:50pm 2.5ft 8s 6s 13 13 mph 1023.7mb 72f 71f
2:50pm 2.5ft 9s 7s 9 11 mph 1023.8mb 72f 71f
1:50pm 3ft 9s 7s 9 9 mph 1024.1mb 72f 71f
12:50pm 3ft 8s 7s 11 11 mph 1024.5mb 72f 70f
11:50am 2.5ft 7s 7s 11 11 mph 1024.7mb 72f 70f
10:50am 3ft 8s 7s 7 9 mph 1025mb 72f 70f
9:50am 3ft 9s 7s 4 7 mph 1025.3mb 71f 70f
8:50am 3ft 8s 7s  -  2 mph 1025.5mb 71f 71f
7:50am 3ft 8s 7s  -  2 mph 1025.1mb 70f 70f
6:50am 2.5ft 8s 7s 2 2 mph 1024.6mb 70f 71f
5:50am 3ft 8s 7s 4 4 mph 1024.2mb 70f 69f
4:50am 3.5ft 8s 7s 2 4 mph 1024mb 70f 69f
3:50am 3ft 8s 7s 2 2 mph 1023.5mb 71f 69f
2:50am 3ft 8s 7s  -  2 mph 1023.7mb 70f 69f
1:50am 3ft 8s 7s  -  2 mph 1024.2mb 70f 69f
12:50am 2.5ft 9s 7s  -  0 mph 1024.6mb 71f 70f
Thu 07/12 11:50pm 3ft 8s 8s 2 2 mph 1024.4mb 71f 71f
10:50pm 3.5ft 9s 8s 2 4 mph 1024.2mb 71f 71f
9:50pm 3.5ft 8s 8s 4 4 mph 1024mb 71f 71f
8:50pm 3ft 8s 7s 4 7 mph 1023.5mb 73f 72f
7:50pm 3ft 8s 7s 7 9 mph 1023.2mb 73f 72f
5:50pm 3ft 9s 7s 4 7 mph 1022.6mb 74f 73f
4:50pm 3ft 9s 7s 4 4 mph 1022.9mb 76f 73f
1:50pm 3.5ft 10s 7s 2 2 mph 1023mb 72f 70f
12:50pm 3.5ft 10s 7s 2 4 mph 1023mb 71f 69f
11:50am 3.5ft 11s 7s 4 7 mph 1023mb 70f 69f
10:50am 3.5ft 10s 7s 11 11 mph 1022.2mb 69f 69f
9:50am 3ft 10s 7s 11 11 mph 1021.5mb 69f 69f
8:50am 3ft 10s 7s 7 9 mph 1021.5mb 69f 69f
7:50am 3ft 8s 7s 7 9 mph 1021mb 69f 69f